Time;durP1;ratioP1;P1;durP2;ratioP2;P2;SDS_P1;SDS_P2;PMS_P1;PMS_P2;Temp;Humidity;BMP_temperature;BMP_pressure;BME280_temperature;BME280_humidity;BME280_pressure;Samples;Min_cycle;Max_cycle;Signal;HPM_P1;HPM_P2
2024/01/14 00:01:29;;;;;;;53.15;33.45;;;;;;;7.53;63.73;101615.16;5007338;28;97269;-66
2024/01/14 00:03:56;;;;;;;49.08;30.70;;;;;;;7.51;63.59;101609.88;4994192;28;98148;-66
2024/01/14 00:06:23;;;;;;;48.65;31.38;;;;;;;7.50;63.99;101601.94;5002256;28;97934;-66
2024/01/14 00:08:50;;;;;;;53.97;31.15;;;;;;;7.51;63.63;101612.56;5011729;28;97054;-67
2024/01/14 00:11:17;;;;;;;57.40;33.33;;;;;;;7.52;63.96;101616.09;5003212;28;99746;-67
2024/01/14 00:13:44;;;;;;;54.22;32.00;;;;;;;7.53;63.65;101602.66;4996459;28;98622;-66
2024/01/14 00:16:11;;;;;;;51.05;31.52;;;;;;;7.51;63.71;101607.22;5000437;28;97197;-66
2024/01/14 00:18:38;;;;;;;55.53;30.63;;;;;;;7.50;63.81;101607.28;5004880;28;96970;-67
2024/01/14 00:21:05;;;;;;;48.05;29.27;;;;;;;7.45;63.55;101598.63;5001185;28;97520;-67
2024/01/14 00:23:32;;;;;;;48.80;30.00;;;;;;;7.44;63.71;101594.22;5005311;28;98054;-66
2024/01/14 00:25:58;;;;;;;52.10;31.45;;;;;;;7.42;63.58;101599.59;5005163;28;97150;-66
2024/01/14 00:28:25;;;;;;;48.55;30.67;;;;;;;7.41;63.83;101597.84;5006141;28;98108;-66
2024/01/14 00:30:52;;;;;;;48.15;29.10;;;;;;;7.39;63.73;101601.53;4998869;28;101144;-66
2024/01/14 00:33:19;;;;;;;53.78;30.33;;;;;;;7.38;63.61;101589.97;5001263;28;97998;-66
2024/01/14 00:35:47;;;;;;;49.42;29.30;;;;;;;7.39;63.65;101599.72;5001579;28;98462;-66
2024/01/14 00:38:15;;;;;;;49.60;27.40;;;;;;;7.38;63.71;101591.78;5005464;28;97202;-66
2024/01/14 00:40:41;;;;;;;47.20;29.77;;;;;;;7.37;63.67;101577.56;5011036;27;99419;-66
2024/01/14 00:43:08;;;;;;;54.00;30.70;;;;;;;7.38;63.69;101578.41;5006462;28;97528;-66
2024/01/14 00:45:35;;;;;;;51.28;31.70;;;;;;;7.38;63.62;101575.75;5009128;28;97244;-67
2024/01/14 00:48:02;;;;;;;58.65;31.83;;;;;;;7.36;63.80;101570.47;5006866;28;96763;-66
2024/01/14 00:50:29;;;;;;;50.80;29.80;;;;;;;7.34;63.58;101559.88;5008770;28;97327;-67
2024/01/14 00:52:56;;;;;;;57.83;30.48;;;;;;;7.33;63.66;101559.94;5004196;28;99556;-67
2024/01/14 00:55:23;;;;;;;51.03;30.67;;;;;;;7.31;63.76;101560.00;5012414;28;97129;-67
2024/01/14 00:57:50;;;;;;;56.15;33.03;;;;;;;7.30;63.79;101562.75;5016263;27;97337;-67
2024/01/14 01:00:18;;;;;;;62.42;33.88;;;;;;;7.31;63.63;101556.47;5003684;28;98267;-67
2024/01/14 01:02:45;;;;;;;58.05;34.03;;;;;;;7.30;63.60;101546.72;4999904;28;99691;-67
2024/01/14 01:05:12;;;;;;;57.60;33.78;;;;;;;7.30;63.61;101544.03;5010076;28;97212;-67
2024/01/14 01:07:39;;;;;;;61.70;32.50;;;;;;;7.29;63.76;101543.19;4997978;27;97200;-67
2024/01/14 01:10:06;;;;;;;56.83;33.05;;;;;;;7.30;63.75;101546.72;5010011;28;99501;-67
2024/01/14 01:12:33;;;;;;;61.85;35.10;;;;;;;7.30;63.67;101542.25;5010745;28;98293;-66
2024/01/14 01:15:00;;;;;;;59.92;34.10;;;;;;;7.30;63.77;101541.38;5006774;28;97105;-67
2024/01/14 01:17:27;;;;;;;59.35;33.75;;;;;;;7.30;63.75;101534.22;5012877;27;97349;-67
2024/01/14 01:19:54;;;;;;;56.55;32.47;;;;;;;7.30;63.87;101522.66;5008857;28;97516;-67
2024/01/14 01:22:21;;;;;;;53.95;33.08;;;;;;;7.30;63.77;101528.00;5000217;27;97710;-67
2024/01/14 01:24:48;;;;;;;54.97;32.75;;;;;;;7.29;63.72;101532.50;4999238;28;96808;-67
2024/01/14 01:27:14;;;;;;;55.00;33.67;;;;;;;7.28;63.75;101532.56;5000732;28;97818;-67
2024/01/14 01:29:41;;;;;;;62.20;33.95;;;;;;;7.28;63.87;101521.88;4996534;28;97757;-67
2024/01/14 01:32:09;;;;;;;59.00;34.72;;;;;;;7.28;63.64;101517.41;5000320;28;97520;-67
2024/01/14 01:34:36;;;;;;;54.35;33.47;;;;;;;7.30;63.77;101517.31;5009502;28;96978;-67
2024/01/14 01:37:04;;;;;;;56.28;32.67;;;;;;;7.28;63.95;101512.06;5005929;28;97253;-67
2024/01/14 01:39:31;;;;;;;55.28;34.00;;;;;;;7.30;63.82;101518.19;4999360;28;97849;-68
2024/01/14 01:41:59;;;;;;;58.13;35.75;;;;;;;7.32;63.97;101510.09;4997386;28;97526;-67
2024/01/14 01:44:26;;;;;;;63.28;35.03;;;;;;;7.32;63.76;101510.97;5004181;28;97031;-67
2024/01/14 01:46:54;;;;;;;57.28;34.03;;;;;;;7.32;63.90;101510.97;5005368;27;97647;-67
2024/01/14 01:49:21;;;;;;;54.08;33.17;;;;;;;7.33;63.97;101501.16;5004267;28;97367;-67
2024/01/14 01:51:50;;;;;;;57.40;34.50;;;;;;;7.33;63.82;101498.47;5004074;27;97663;-67
2024/01/14 01:54:21;;;;;;;57.20;33.50;;;;;;;7.33;63.71;101495.81;5008878;28;96982;-67
2024/01/14 01:56:51;;;;;;;53.10;31.35;;;;;;;7.32;64.00;101492.25;5005449;28;97500;-67
2024/01/14 01:59:19;;;;;;;56.75;34.53;;;;;;;7.31;63.82;101487.88;5007512;28;98299;-67
2024/01/14 02:01:47;;;;;;;58.58;33.05;;;;;;;7.30;63.87;101504.84;4995798;27;97815;-67
2024/01/14 02:04:15;;;;;;;50.20;31.20;;;;;;;7.29;63.63;101489.75;4980184;28;97222;-67
2024/01/14 02:06:42;;;;;;;58.92;35.45;;;;;;;7.27;63.56;101496.09;4994867;28;97385;-67
2024/01/14 02:09:09;;;;;;;58.53;35.65;;;;;;;7.24;63.76;101481.06;5000751;28;98270;-67
2024/01/14 02:11:37;;;;;;;60.95;35.45;;;;;;;7.24;63.88;101474.88;4999954;28;97941;-67
2024/01/14 02:14:05;;;;;;;61.25;34.83;;;;;;;7.25;63.80;101477.47;4994752;28;96818;-67
2024/01/14 02:16:32;;;;;;;63.42;36.65;;;;;;;7.27;63.77;101474.72;4997178;28;98164;-67
2024/01/14 02:18:58;;;;;;;62.40;36.40;;;;;;;7.28;63.73;101469.31;5001460;28;97542;-67
2024/01/14 02:21:42;;;;;;;61.33;37.55;;;;;;;7.29;63.79;101478.19;5011942;27;97893;-67
2024/01/14 02:24:23;;;;;;;57.30;34.10;;;;;;;7.31;63.74;101473.63;4992267;28;97141;-67
2024/01/14 02:26:49;;;;;;;62.13;35.95;;;;;;;7.32;63.83;101470.88;5003481;28;97826;-67
2024/01/14 02:29:18;;;;;;;58.92;34.40;;;;;;;7.31;63.75;101471.84;4993773;28;99135;-67
2024/01/14 02:31:44;;;;;;;59.13;33.90;;;;;;;7.32;63.34;101470.03;4999263;28;99081;-67
2024/01/14 02:34:12;;;;;;;56.20;35.40;;;;;;;7.29;63.58;101473.72;4991469;27;97193;-67
2024/01/14 02:36:39;;;;;;;63.00;36.35;;;;;;;7.29;63.75;101472.84;5009479;28;97421;-67
2024/01/14 02:39:05;;;;;;;57.30;34.50;;;;;;;7.27;63.64;101472.06;4998822;28;99644;-67
2024/01/14 02:41:33;;;;;;;56.28;34.92;;;;;;;7.26;63.81;101463.16;5007979;27;100091;-67
2024/01/14 02:44:00;;;;;;;60.30;34.03;;;;;;;7.25;63.59;101461.44;5006701;28;97238;-67
2024/01/14 02:46:28;;;;;;;53.78;32.88;;;;;;;7.25;63.65;101464.09;5020043;28;96953;-67
2024/01/14 02:48:57;;;;;;;55.80;34.67;;;;;;;7.22;63.71;101452.69;4986834;28;98460;-67
2024/01/14 02:51:24;;;;;;;53.90;32.42;;;;;;;7.23;63.72;101449.09;5002347;28;97654;-67
2024/01/14 02:53:50;;;;;;;52.38;34.50;;;;;;;7.20;63.59;101447.44;5013596;28;97196;-68
2024/01/14 02:56:18;;;;;;;57.72;33.55;;;;;;;7.20;63.89;101449.25;5008057;28;96866;-66
2024/01/14 02:58:45;;;;;;;54.40;33.92;;;;;;;7.18;63.76;101448.44;5010398;28;97927;-67
2024/01/14 03:01:12;;;;;;;57.88;35.63;;;;;;;7.16;63.90;101445.84;5004237;28;99279;-67
2024/01/14 03:03:39;;;;;;;59.90;35.65;;;;;;;7.15;63.83;101435.22;5013611;28;96778;-67
2024/01/14 03:06:06;;;;;;;57.75;36.53;;;;;;;7.14;63.77;101437.03;5015734;28;96922;-67
2024/01/14 03:08:33;;;;;;;64.03;37.08;;;;;;;7.15;63.84;101427.22;4991549;28;98282;-67
2024/01/14 03:10:59;;;;;;;66.75;35.58;;;;;;;7.15;63.94;101428.09;5013242;28;98410;-67
2024/01/14 03:13:27;;;;;;;65.18;36.60;;;;;;;7.16;63.93;101427.16;5006991;28;97484;-67
2024/01/14 03:15:54;;;;;;;63.67;36.97;;;;;;;7.17;63.89;101426.22;5013153;28;97278;-67
2024/01/14 03:18:21;;;;;;;65.55;38.13;;;;;;;7.16;63.89;101427.16;5005607;28;97485;-67
2024/01/14 03:20:48;;;;;;;71.45;40.38;;;;;;;7.16;63.91;101431.63;5014251;28;98086;-67
2024/01/14 03:23:15;;;;;;;64.43;38.25;;;;;;;7.15;63.84;101425.41;5012050;27;97227;-67
2024/01/14 03:25:41;;;;;;;64.80;40.03;;;;;;;7.16;63.79;101418.28;5005338;28;97403;-67
2024/01/14 03:28:08;;;;;;;74.25;40.22;;;;;;;7.15;63.88;101420.06;5014178;28;97585;-67
2024/01/14 03:30:35;;;;;;;71.85;39.83;;;;;;;7.14;63.70;101406.78;5006284;28;98015;-67
2024/01/14 03:33:02;;;;;;;67.70;38.65;;;;;;;7.13;63.86;101407.72;5013497;27;97065;-67
2024/01/14 03:35:29;;;;;;;65.95;37.38;;;;;;;7.09;63.67;101415.03;5004326;28;98567;-67
2024/01/14 03:37:56;;;;;;;62.95;36.70;;;;;;;7.07;63.71;101424.91;5007762;28;97986;-67
2024/01/14 03:40:22;;;;;;;63.05;36.80;;;;;;;7.06;63.84;101419.66;5009971;28;97765;-67
2024/01/14 03:42:49;;;;;;;58.72;34.85;;;;;;;7.04;63.74;101411.72;5008680;28;97061;-67
2024/01/14 03:45:16;;;;;;;58.67;34.95;;;;;;;7.02;63.88;101416.25;5009816;28;97138;-68
2024/01/14 03:47:43;;;;;;;59.00;34.63;;;;;;;7.01;63.89;101409.19;5002785;28;97887;-67
2024/01/14 03:50:10;;;;;;;62.17;38.83;;;;;;;7.00;63.84;101402.97;5008388;28;98217;-67
2024/01/14 03:52:37;;;;;;;62.90;37.25;;;;;;;6.99;63.75;101401.25;5020277;27;97075;-67
2024/01/14 03:55:04;;;;;;;63.92;36.03;;;;;;;6.99;63.78;101398.56;5018091;28;97123;-67
2024/01/14 03:57:32;;;;;;;58.72;35.72;;;;;;;6.99;63.77;101393.22;5000494;28;97874;-67
2024/01/14 03:59:58;;;;;;;59.88;35.88;;;;;;;6.99;63.80;101395.03;5015484;28;97860;-67
2024/01/14 04:02:25;;;;;;;65.85;39.50;;;;;;;6.97;63.89;101388.91;5003989;27;97022;-67
2024/01/14 04:04:52;;;;;;;63.63;39.00;;;;;;;6.95;63.87;101391.66;5009022;28;97335;-68
2024/01/14 04:07:19;;;;;;;63.88;38.50;;;;;;;6.94;63.85;101383.72;5008173;28;97542;-67
2024/01/14 04:09:46;;;;;;;65.35;38.45;;;;;;;6.93;63.84;101387.31;4997713;28;98186;-67
2024/01/14 04:12:13;;;;;;;66.32;39.33;;;;;;;6.91;63.93;101384.72;5001642;28;97331;-67
2024/01/14 04:14:40;;;;;;;71.18;39.30;;;;;;;6.91;63.77;101373.19;5004521;28;97168;-67
2024/01/14 04:17:07;;;;;;;71.80;40.30;;;;;;;6.91;63.72;101374.03;5000887;28;100113;-68
2024/01/14 04:19:33;;;;;;;73.45;41.25;;;;;;;6.90;63.85;101374.13;5002380;28;97779;-68
2024/01/14 04:22:00;;;;;;;70.15;38.90;;;;;;;6.90;63.74;101368.78;5001886;28;98484;-68
2024/01/14 04:24:27;;;;;;;64.93;39.50;;;;;;;6.89;63.75;101367.03;5013468;28;96854;-68
2024/01/14 04:26:54;;;;;;;69.32;41.10;;;;;;;6.88;63.79;101365.31;5012393;28;98073;-67
2024/01/14 04:29:20;;;;;;;67.40;39.45;;;;;;;6.87;63.73;101359.09;5008965;28;98102;-68
2024/01/14 04:31:47;;;;;;;62.58;38.33;;;;;;;6.87;63.77;101353.75;5004325;28;96959;-68
2024/01/14 04:34:14;;;;;;;63.97;39.55;;;;;;;6.86;63.90;101352.03;4999538;28;97249;-67
2024/01/14 04:36:41;;;;;;;69.22;40.53;;;;;;;6.85;63.88;101352.09;5004961;28;97541;-67
2024/01/14 04:39:08;;;;;;;65.40;39.10;;;;;;;6.85;63.88;101349.44;5005530;28;99824;-68
2024/01/14 04:41:34;;;;;;;70.97;41.25;;;;;;;6.86;63.90;101343.16;5012782;28;97052;-67
2024/01/14 04:44:02;;;;;;;76.70;41.95;;;;;;;6.85;63.82;101346.78;5013722;28;97198;-67
2024/01/14 04:46:28;;;;;;;64.93;41.17;;;;;;;6.85;63.88;101333.41;5002589;27;97734;-67
2024/01/14 04:48:55;;;;;;;69.32;39.60;;;;;;;6.85;63.69;101344.09;5018757;28;98228;-67
2024/01/14 04:51:22;;;;;;;62.83;36.83;;;;;;;6.84;63.75;101345.03;5005316;28;97372;-68
2024/01/14 04:53:49;;;;;;;67.13;36.83;;;;;;;6.81;63.78;101335.38;5002992;28;97441;-68
2024/01/14 04:56:16;;;;;;;70.10;38.70;;;;;;;6.79;63.66;101331.91;5002919;28;97521;-67
2024/01/14 04:58:42;;;;;;;65.05;37.58;;;;;;;6.79;63.75;101337.25;5019856;28;97846;-67
2024/01/14 05:01:09;;;;;;;65.15;38.00;;;;;;;6.78;63.77;101331.97;5008706;28;96964;-68
2024/01/14 05:03:36;;;;;;;64.25;39.58;;;;;;;6.78;63.83;101337.31;5011321;28;97134;-67
2024/01/14 05:06:03;;;;;;;63.95;38.35;;;;;;;6.78;63.81;101327.50;5015377;28;98238;-68
2024/01/14 05:08:31;;;;;;;61.38;35.50;;;;;;;6.78;63.69;101329.31;4995327;28;97939;-68
2024/01/14 05:10:58;;;;;;;64.05;38.00;;;;;;;6.76;63.78;101331.19;5003157;28;97194;-68
2024/01/14 05:13:25;;;;;;;60.92;36.63;;;;;;;6.75;63.83;101324.97;4998934;28;97225;-68
2024/01/14 05:15:51;;;;;;;62.50;37.65;;;;;;;6.76;63.70;101324.03;5012010;28;98021;-68
2024/01/14 05:18:18;;;;;;;65.93;38.42;;;;;;;6.77;63.74;101330.25;5009326;28;98207;-67
2024/01/14 05:20:45;;;;;;;60.42;37.85;;;;;;;6.77;63.88;101322.25;5016255;27;96874;-67
2024/01/14 05:23:12;;;;;;;64.88;37.45;;;;;;;6.78;63.88;101318.63;5008074;28;97117;-67
2024/01/14 05:25:38;;;;;;;63.17;37.63;;;;;;;6.78;63.81;101319.50;5013257;28;97914;-67
2024/01/14 05:28:05;;;;;;;64.05;37.90;;;;;;;6.78;63.77;101322.16;5008138;28;97557;-68
2024/01/14 05:30:32;;;;;;;58.13;36.22;;;;;;;6.77;63.77;101315.09;5002029;28;97076;-68
2024/01/14 05:32:59;;;;;;;56.13;34.72;;;;;;;6.75;63.65;101308.97;5010761;28;96862;-67
2024/01/14 05:35:26;;;;;;;58.47;36.25;;;;;;;6.74;63.77;101309.91;5008365;27;97368;-67
2024/01/14 05:37:53;;;;;;;54.95;33.22;;;;;;;6.74;63.89;101312.56;5014953;28;98160;-68
2024/01/14 05:40:19;;;;;;;55.58;34.50;;;;;;;6.74;63.72;101307.25;5008262;28;97318;-68
2024/01/14 05:42:46;;;;;;;57.08;34.75;;;;;;;6.72;63.63;101306.44;5004687;28;97312;-67
2024/01/14 05:45:12;;;;;;;54.58;33.28;;;;;;;6.72;63.70;101303.78;5010697;28;97345;-68
2024/01/14 05:47:40;;;;;;;52.33;30.60;;;;;;;6.71;63.88;101294.03;4991600;28;98056;-68
2024/01/14 05:50:07;;;;;;;51.90;31.52;;;;;;;6.70;63.75;101286.97;5009131;28;97371;-68
2024/01/14 05:52:34;;;;;;;54.33;32.47;;;;;;;6.69;63.70;101285.25;5018867;27;97107;-67
2024/01/14 05:55:02;;;;;;;52.47;30.52;;;;;;;6.68;63.80;101292.34;5005919;28;97663;-67
2024/01/14 05:57:29;;;;;;;55.55;33.60;;;;;;;6.66;63.55;101288.88;5006268;28;97561;-67
2024/01/14 05:59:56;;;;;;;53.88;31.33;;;;;;;6.66;63.60;101286.22;5002153;28;96838;-68
2024/01/14 06:02:24;;;;;;;54.20;33.83;;;;;;;6.65;63.73;101294.28;5003953;28;96795;-67
2024/01/14 06:04:50;;;;;;;52.72;31.27;;;;;;;6.66;63.69;101298.69;5005360;28;97766;-68
2024/01/14 06:07:18;;;;;;;59.17;34.38;;;;;;;6.65;63.66;101288.97;5006901;27;97912;-67
2024/01/14 06:09:46;;;;;;;59.20;34.88;;;;;;;6.64;63.56;101293.44;5007776;28;97117;-67
2024/01/14 06:12:14;;;;;;;58.90;33.30;;;;;;;6.63;63.65;101285.50;5009784;28;97754;-68
2024/01/14 06:14:40;;;;;;;58.50;34.15;;;;;;;6.61;63.48;101276.72;5016639;27;98416;-70
2024/01/14 06:17:08;;;;;;;58.85;34.15;;;;;;;6.59;63.55;101278.56;4996065;28;97637;-67
2024/01/14 06:19:35;;;;;;;59.38;35.08;;;;;;;6.57;63.43;101267.97;5003469;28;97178;-67
2024/01/14 06:22:03;;;;;;;60.90;33.42;;;;;;;6.58;63.51;101274.19;4998394;28;97121;-67
2024/01/14 06:24:29;;;;;;;59.67;32.83;;;;;;;6.56;63.73;101262.72;4997307;28;97482;-67
2024/01/14 06:26:56;;;;;;;55.42;33.17;;;;;;;6.53;63.68;101261.06;5004648;27;98068;-68
2024/01/14 06:29:24;;;;;;;55.53;32.67;;;;;;;6.52;63.64;101250.47;4997885;28;98108;-67
2024/01/14 06:31:50;;;;;;;53.85;33.30;;;;;;;6.52;63.63;101251.31;5007839;28;97236;-68
2024/01/14 06:34:17;;;;;;;57.55;33.80;;;;;;;6.53;63.68;101247.72;4989184;28;97526;-68
2024/01/14 06:36:44;;;;;;;52.58;33.22;;;;;;;6.54;63.50;101253.91;5006101;28;97924;-67
2024/01/14 06:39:12;;;;;;;54.92;31.52;;;;;;;6.53;63.59;101246.84;4994326;27;96793;-68
2024/01/14 06:41:38;;;;;;;60.08;34.00;;;;;;;6.51;63.40;101238.91;4994732;28;97368;-67
2024/01/14 06:44:05;;;;;;;52.08;31.38;;;;;;;6.52;63.56;101239.78;4994867;28;97604;-67
2024/01/14 06:46:32;;;;;;;53.70;31.67;;;;;;;6.49;63.38;101224.78;5002031;28;97546;-67
2024/01/14 06:49:00;;;;;;;51.05;31.25;;;;;;;6.48;63.43;101230.19;5022124;28;96920;-67
2024/01/14 06:51:27;;;;;;;56.47;32.90;;;;;;;6.45;63.45;101228.53;5003740;28;97790;-67
2024/01/14 06:53:53;;;;;;;54.78;31.40;;;;;;;6.45;63.53;101222.34;5003571;28;97445;-67
2024/01/14 06:56:20;;;;;;;50.22;29.63;;;;;;;6.44;63.65;101217.94;4993087;28;97780;-67
2024/01/14 06:58:49;;;;;;;58.05;32.53;;;;;;;6.44;63.70;101229.47;4996885;28;97363;-68
2024/01/14 07:01:16;;;;;;;57.35;34.67;;;;;;;6.43;63.46;101229.56;4999901;28;97195;-67
2024/01/14 07:03:43;;;;;;;61.10;33.75;;;;;;;6.40;63.51;101233.22;4992829;28;98194;-68
2024/01/14 07:06:10;;;;;;;62.80;34.42;;;;;;;6.38;63.42;101233.31;5000002;28;98500;-67
2024/01/14 07:08:37;;;;;;;59.88;35.05;;;;;;;6.37;63.54;101233.38;5005359;28;97120;-67
2024/01/14 07:11:05;;;;;;;67.13;37.95;;;;;;;6.36;63.40;101228.97;5012327;27;97053;-67
2024/01/14 07:13:32;;;;;;;56.65;35.00;;;;;;;6.38;63.59;101227.09;5008490;28;97674;-67
2024/01/14 07:15:59;;;;;;;59.78;35.72;;;;;;;6.38;63.68;101229.78;5008352;28;97608;-67
2024/01/14 07:18:25;;;;;;;64.57;37.65;;;;;;;6.38;63.61;101219.97;5008390;28;97025;-67
2024/01/14 07:20:52;;;;;;;62.10;34.13;;;;;;;6.40;63.48;101227.91;5011564;28;97192;-67
2024/01/14 07:23:19;;;;;;;59.40;34.25;;;;;;;6.38;63.62;101219.97;5010950;28;98143;-67
2024/01/14 07:26:17;;;;;;;57.25;32.92;;;;;;;6.38;63.65;101217.31;4989810;28;100183;-67
2024/01/14 07:28:48;;;;;;;61.83;34.65;;;;;;;6.41;63.50;101221.63;5005699;28;98424;-67
2024/01/14 07:31:20;;;;;;;58.05;35.03;;;;;;;6.40;63.56;101225.22;4993252;28;97991;-67
2024/01/14 07:33:50;;;;;;;59.13;35.75;;;;;;;6.40;63.51;101230.56;5001947;28;97684;-67
2024/01/14 07:36:17;;;;;;;61.58;33.90;;;;;;;6.41;63.59;101220.75;5012373;28;97577;-67
2024/01/14 07:38:45;;;;;;;58.67;34.75;;;;;;;6.40;63.68;101224.38;5007931;28;97186;-68
2024/01/14 07:41:13;;;;;;;61.58;35.47;;;;;;;6.38;63.67;101222.63;5006609;27;98123;-67
2024/01/14 07:43:40;;;;;;;62.15;34.47;;;;;;;6.38;63.59;101224.44;5004724;28;97545;-67
2024/01/14 07:46:07;;;;;;;53.67;31.77;;;;;;;6.36;63.51;101223.66;4989799;28;100269;-67
2024/01/14 07:48:35;;;;;;;54.72;32.92;;;;;;;6.35;63.67;101222.78;5002915;28;97057;-68
2024/01/14 07:51:03;;;;;;;58.53;35.03;;;;;;;6.35;63.69;101222.78;4996729;28;97226;-67
2024/01/14 07:53:30;;;;;;;59.92;33.95;;;;;;;6.37;63.66;101223.56;5009199;28;97574;-67
2024/01/14 07:55:57;;;;;;;61.72;33.72;;;;;;;6.38;63.57;101219.97;5008910;28;97661;-67
2024/01/14 07:58:24;;;;;;;58.50;32.90;;;;;;;6.38;63.69;101221.78;5000499;28;96971;-68
2024/01/14 08:00:51;;;;;;;53.78;32.40;;;;;;;6.41;63.50;101228.75;4998737;28;97126;-67
2024/01/14 08:03:29;;;;;;;58.38;33.20;;;;;;;6.40;63.59;101219.03;5011460;28;97840;-67
2024/01/14 08:05:57;;;;;;;61.00;33.88;;;;;;;6.39;63.69;101220.84;5006551;28;98491;-67
2024/01/14 08:08:24;;;;;;;59.28;32.47;;;;;;;6.40;63.63;101222.56;5010466;28;96934;-67
2024/01/14 08:10:51;;;;;;;54.85;33.58;;;;;;;6.40;63.65;101219.91;5012583;28;96816;-67
2024/01/14 08:13:19;;;;;;;51.72;29.90;;;;;;;6.42;63.65;101222.50;5004140;28;97386;-67
2024/01/14 08:15:46;;;;;;;54.42;31.40;;;;;;;6.41;63.58;101226.09;5005549;28;97652;-68
2024/01/14 08:18:27;;;;;;;57.35;32.40;;;;;;;6.41;63.67;101226.97;4998934;28;96951;-67
2024/01/14 08:20:54;;;;;;;55.08;31.27;;;;;;;6.40;63.52;101224.38;5006747;28;96939;-67
2024/01/14 08:23:21;;;;;;;50.30;31.42;;;;;;;6.40;63.60;101224.38;5004031;27;97493;-67
2024/01/14 08:25:48;;;;;;;57.88;31.67;;;;;;;6.39;63.61;101223.50;5010093;28;98383;-68
2024/01/14 08:28:14;;;;;;;57.45;32.92;;;;;;;6.40;63.71;101225.22;4997573;28;96971;-67
2024/01/14 08:30:41;;;;;;;58.15;32.85;;;;;;;6.41;63.75;101210.09;5000796;28;98039;-67
2024/01/14 08:33:08;;;;;;;57.58;32.80;;;;;;;6.40;63.41;101217.22;5000223;28;98016;-68
2024/01/14 08:35:35;;;;;;;55.42;32.08;;;;;;;6.41;63.48;101223.44;5001091;28;97474;-67
2024/01/14 08:38:02;;;;;;;55.05;32.33;;;;;;;6.41;63.58;101210.09;5009702;28;97405;-67
2024/01/14 08:40:29;;;;;;;56.78;32.88;;;;;;;6.43;63.59;101202.88;4997938;28;97902;-68
2024/01/14 08:42:55;;;;;;;52.67;32.53;;;;;;;6.45;63.63;101198.34;5002681;28;97549;-67
2024/01/14 08:45:22;;;;;;;57.05;33.38;;;;;;;6.45;63.43;101206.34;4993370;28;97641;-67
2024/01/14 08:47:49;;;;;;;49.13;32.03;;;;;;;6.44;63.64;101205.47;5001503;28;97111;-67
2024/01/14 08:50:18;;;;;;;51.67;32.58;;;;;;;6.45;63.63;101201.00;5017656;28;97486;-67
2024/01/14 08:52:44;;;;;;;50.47;30.40;;;;;;;6.46;63.70;101194.72;4998964;28;97665;-68
2024/01/14 08:55:13;;;;;;;53.70;32.80;;;;;;;6.46;63.62;101194.72;5005508;28;100966;-67
2024/01/14 08:57:40;;;;;;;53.83;32.55;;;;;;;6.47;63.60;101189.31;5014193;27;97158;-67
2024/01/14 09:00:08;;;;;;;52.60;31.95;;;;;;;6.50;63.66;101194.50;5011058;28;98064;-68
2024/01/14 09:02:36;;;;;;;55.05;31.08;;;;;;;6.52;63.86;101194.44;5008744;28;97594;-67
2024/01/14 09:05:02;;;;;;;53.38;33.40;;;;;;;6.55;63.66;101194.28;5001467;28;97678;-67
2024/01/14 09:07:30;;;;;;;55.47;32.17;;;;;;;6.57;63.78;101187.06;4997267;28;97113;-67
2024/01/14 09:09:57;;;;;;;49.78;31.33;;;;;;;6.60;63.64;101187.78;4993501;28;97595;-67
2024/01/14 09:12:24;;;;;;;52.47;31.80;;;;;;;6.61;63.63;101192.16;4996999;28;98107;-67
2024/01/14 09:14:51;;;;;;;51.40;31.38;;;;;;;6.62;63.76;101177.03;4996266;28;97587;-67
2024/01/14 09:17:18;;;;;;;50.45;29.13;;;;;;;6.63;63.60;101178.75;5001206;28;97040;-67
2024/01/14 09:19:45;;;;;;;49.97;30.48;;;;;;;6.62;63.60;101177.03;4994300;28;97518;-67
2024/01/14 09:22:12;;;;;;;52.38;32.78;;;;;;;6.61;63.69;101161.94;4995537;27;98364;-67
2024/01/14 09:24:43;;;;;;;53.10;33.55;;;;;;;6.62;63.71;101163.69;5004549;28;97823;-67
2024/01/14 09:27:14;;;;;;;48.65;30.38;;;;;;;6.63;63.57;101158.25;4994998;28;97677;-67
2024/01/14 09:29:41;;;;;;;51.72;30.67;;;;;;;6.66;63.66;101157.25;4992126;28;96977;-66
2024/01/14 09:32:08;;;;;;;52.08;31.50;;;;;;;6.68;63.71;101160.72;4997922;28;97923;-67
2024/01/14 09:34:35;;;;;;;46.17;30.17;;;;;;;6.69;63.59;101165.13;5000707;28;97903;-67
2024/01/14 09:37:02;;;;;;;53.13;33.17;;;;;;;6.69;63.51;101162.47;4987956;28;96911;-67
2024/01/14 09:39:29;;;;;;;54.00;31.05;;;;;;;6.69;63.69;101167.81;4996737;28;98508;-67
2024/01/14 09:42:12;;;;;;;55.47;32.67;;;;;;;6.67;63.54;101166.97;4996891;28;98306;-67
2024/01/14 09:44:40;;;;;;;54.08;32.45;;;;;;;6.66;63.57;101162.59;4990455;28;97469;-67
2024/01/14 09:47:08;;;;;;;48.38;29.95;;;;;;;6.66;63.58;101154.59;4993672;28;96855;-67
2024/01/14 09:49:36;;;;;;;54.42;34.08;;;;;;;6.65;63.48;101150.19;4991399;28;97033;-68
2024/01/14 09:52:04;;;;;;;56.60;33.50;;;;;;;6.67;63.70;101153.63;4988677;28;100032;-67
2024/01/14 09:54:32;;;;;;;63.00;35.60;;;;;;;6.68;63.63;101150.03;4986316;28;99757;-68
2024/01/14 09:57:06;;;;;;;59.63;34.45;;;;;;;6.68;63.53;101161.56;4987472;28;97689;-67
2024/01/14 09:59:34;;;;;;;52.53;32.97;;;;;;;6.69;63.70;101152.66;5008818;28;97580;-67
2024/01/14 10:02:01;;;;;;;56.53;33.63;;;;;;;6.71;63.67;101154.38;4985971;28;97401;-67
2024/01/14 10:04:29;;;;;;;56.28;32.85;;;;;;;6.71;63.82;101152.56;4983967;28;98268;-67
2024/01/14 10:06:57;;;;;;;57.17;36.10;;;;;;;6.72;63.55;101156.97;4993707;28;97058;-67
2024/01/14 10:09:25;;;;;;;61.67;37.55;;;;;;;6.70;63.52;101150.84;4998077;28;97433;-67
2024/01/14 10:11:51;;;;;;;63.17;36.50;;;;;;;6.71;63.57;101149.03;5002181;28;98202;-67
2024/01/14 10:14:24;;;;;;;64.25;37.80;;;;;;;6.70;63.67;101158.84;5010131;28;97670;-68
2024/01/14 10:16:51;;;;;;;67.07;39.80;;;;;;;6.72;63.70;101151.63;5008553;28;97154;-67
2024/01/14 10:19:22;;;;;;;69.15;39.45;;;;;;;6.73;63.48;101144.50;5001721;27;96916;-67
2024/01/14 10:21:52;;;;;;;68.82;40.15;;;;;;;6.73;63.61;101137.34;5011690;27;97542;-67
2024/01/14 10:24:39;;;;;;;61.85;36.13;;;;;;;6.75;63.67;101132.81;4996548;28;97611;-67
2024/01/14 10:27:06;;;;;;;63.33;38.65;;;;;;;6.77;63.76;101128.25;4996577;28;96749;-67
2024/01/14 10:29:33;;;;;;;71.35;40.78;;;;;;;6.76;63.61;101128.31;4999645;28;98100;-67
2024/01/14 10:32:00;;;;;;;66.80;38.03;;;;;;;6.73;63.77;101132.00;4992535;28;97617;-67
2024/01/14 10:34:28;;;;;;;66.88;38.85;;;;;;;6.72;63.78;101132.97;5002708;28;97878;-68
2024/01/14 10:37:00;;;;;;;65.90;39.72;;;;;;;6.71;63.60;101117.03;4993541;28;97599;-67
2024/01/14 10:39:31;;;;;;;62.47;36.47;;;;;;;6.71;63.58;101117.88;5011141;28;97255;-67
2024/01/14 10:42:02;;;;;;;64.15;36.78;;;;;;;6.71;63.60;101117.03;4995908;28;97962;-67
2024/01/14 10:44:30;;;;;;;66.18;37.90;;;;;;;6.71;63.49;101115.22;4996937;28;97973;-67
2024/01/14 10:47:02;;;;;;;62.15;35.45;;;;;;;6.73;63.57;101107.13;5003862;28;97184;-67
2024/01/14 10:49:34;;;;;;;60.70;35.10;;;;;;;6.73;63.66;101105.31;5019074;28;97268;-67
2024/01/14 10:52:09;;;;;;;61.55;36.08;;;;;;;6.73;63.56;101099.13;5006649;28;97426;-67
2024/01/14 10:54:48;;;;;;;60.78;36.15;;;;;;;6.72;63.49;101095.59;5006231;28;97588;-67
2024/01/14 10:57:36;;;;;;;59.17;35.13;;;;;;;6.71;63.68;101085.00;5003215;28;96939;-67
2024/01/14 11:00:09;;;;;;;61.85;36.47;;;;;;;6.72;63.65;101084.06;5001042;28;98228;-66
2024/01/14 11:02:39;;;;;;;59.33;35.78;;;;;;;6.74;63.68;101083.03;4995712;28;97554;-67
2024/01/14 11:05:07;;;;;;;64.35;35.28;;;;;;;6.76;63.75;101083.81;4996649;28;98543;-68
2024/01/14 11:07:34;;;;;;;60.83;34.97;;;;;;;6.78;63.49;101078.41;5001494;28;97298;-69
2024/01/14 11:10:12;;;;;;;58.67;33.95;;;;;;;6.78;63.32;101071.25;4999955;28;97254;-68
2024/01/14 11:12:50;;;;;;;58.55;34.25;;;;;;;6.80;63.68;101069.38;4983816;28;100027;-68
2024/01/14 11:15:35;;;;;;;54.42;34.38;;;;;;;6.81;63.72;101067.56;5001690;28;97494;-68
2024/01/14 11:18:09;;;;;;;57.25;35.42;;;;;;;6.84;63.64;101051.38;5015212;27;97098;-67
2024/01/14 11:20:42;;;;;;;63.05;35.75;;;;;;;6.87;63.80;101048.56;5001594;28;97218;-68